Time;durP1;ratioP1;P1;durP2;ratioP2;P2;SDS_P1;SDS_P2;PMS_P1;PMS_P2;Temp;Humidity;BMP_temperature;BMP_pressure;BME280_temperature;BME280_humidity;BME280_pressure;Samples;Min_cycle;Max_cycle;Signal;HPM_P1;HPM_P2
2022/05/15 00:02:00;;;;;;;0.03;0.03;;;;;;;18.09;50.62;101189.63;7360374;19;20029;-58
2022/05/15 00:04:25;;;;;;;0.00;0.00;;;;;;;18.06;51.35;101186.28;7359057;19;20743;-57
2022/05/15 00:06:51;;;;;;;0.00;0.00;;;;;;;17.93;50.74;101169.28;7359909;19;20892;-58
2022/05/15 00:09:16;;;;;;;0.00;0.00;;;;;;;18.00;51.31;101183.94;7357615;19;20003;-57
2022/05/15 00:11:42;;;;;;;0.00;0.00;;;;;;;17.95;51.79;101183.28;7368330;19;20877;-56
2022/05/15 00:14:08;;;;;;;0.00;0.00;;;;;;;17.87;51.90;101181.84;7367105;19;20030;-58
2022/05/15 00:16:34;;;;;;;0.00;0.00;;;;;;;17.80;51.76;101175.13;7363462;19;20010;-57
2022/05/15 00:18:59;;;;;;;0.00;0.00;;;;;;;17.81;51.87;101182.13;7358572;19;20021;-57
2022/05/15 00:21:25;;;;;;;0.00;0.00;;;;;;;17.78;51.98;101186.69;7358649;19;20018;-57
2022/05/15 00:23:51;;;;;;;0.00;0.00;;;;;;;17.73;51.49;101183.38;7369402;19;20010;-57
2022/05/15 00:26:16;;;;;;;0.00;0.00;;;;;;;17.68;51.85;101180.91;7365985;19;20010;-57
2022/05/15 00:28:42;;;;;;;0.10;0.10;;;;;;;17.66;52.40;101187.22;7360331;19;20014;-57
2022/05/15 00:31:08;;;;;;;0.00;0.00;;;;;;;17.60;51.81;101183.06;7361845;19;20637;-57
2022/05/15 00:33:34;;;;;;;0.00;0.00;;;;;;;17.55;51.70;101175.34;7367575;19;20573;-58
2022/05/15 00:35:59;;;;;;;0.10;0.10;;;;;;;17.52;52.29;101179.88;7367333;19;20015;-57
2022/05/15 00:38:25;;;;;;;0.00;0.00;;;;;;;17.38;51.84;101159.34;7366236;19;20517;-57
2022/05/15 00:40:51;;;;;;;0.00;0.00;;;;;;;17.46;52.76;101169.59;7365324;19;20017;-57
2022/05/15 00:43:35;;;;;;;0.00;0.00;;;;;;;17.37;50.95;101171.69;7360940;19;20030;-57
2022/05/15 00:46:01;;;;;;;0.00;0.00;;;;;;;17.36;53.51;101170.00;7356787;19;20006;-57
2022/05/15 00:48:26;;;;;;;0.00;0.00;;;;;;;17.31;53.02;101161.41;7359594;19;20033;-57
2022/05/15 00:50:53;;;;;;;0.00;0.00;;;;;;;17.29;53.38;101163.28;7365816;19;20006;-57
2022/05/15 00:53:19;;;;;;;0.00;0.00;;;;;;;17.26;52.54;101163.41;7368668;19;20579;-58
2022/05/15 00:55:49;;;;;;;0.10;0.10;;;;;;;17.23;53.63;101157.38;7368519;19;20050;-57
2022/05/15 00:58:36;;;;;;;0.10;0.10;;;;;;;17.05;51.87;101140.56;7369609;19;20039;-58
2022/05/15 01:01:04;;;;;;;0.00;0.00;;;;;;;17.15;53.61;101162.16;7362364;19;20006;-57
2022/05/15 01:03:30;;;;;;;0.00;0.00;;;;;;;17.12;53.47;101163.97;7355463;19;20038;-58
2022/05/15 01:05:56;;;;;;;0.00;0.00;;;;;;;17.11;53.51;101158.78;7366936;19;20025;-57
2022/05/15 01:08:23;;;;;;;0.00;0.00;;;;;;;17.08;54.07;101156.25;7362631;19;20011;-58
2022/05/15 01:10:53;;;;;;;0.10;0.10;;;;;;;17.06;53.31;101153.69;7357494;19;20576;-59
2022/05/15 01:13:21;;;;;;;0.00;0.00;;;;;;;16.91;54.00;101133.22;7359902;19;20041;-58
2022/05/15 01:15:47;;;;;;;0.10;0.10;;;;;;;16.96;54.34;101143.59;7356447;19;20018;-58
2022/05/15 01:18:20;;;;;;;0.00;0.00;;;;;;;16.98;54.39;101141.72;7359516;19;20007;-57
2022/05/15 01:20:46;;;;;;;0.00;0.00;;;;;;;16.98;54.44;101142.63;7355692;19;20022;-56
2022/05/15 01:23:11;;;;;;;0.00;0.00;;;;;;;16.98;54.34;101136.47;7358538;19;20734;-58
2022/05/15 01:25:37;;;;;;;0.00;0.00;;;;;;;16.96;54.30;101135.69;7357691;19;20024;-58
2022/05/15 01:28:05;;;;;;;0.00;0.00;;;;;;;16.88;54.04;101119.31;7357353;19;20481;-58
2022/05/15 01:30:32;;;;;;;0.00;0.00;;;;;;;17.00;54.35;101146.03;7357378;19;20799;-58
2022/05/15 01:32:58;;;;;;;0.00;0.00;;;;;;;16.93;53.64;101133.16;7358146;19;20030;-57
2022/05/15 01:35:24;;;;;;;0.00;0.00;;;;;;;16.99;54.16;101139.06;7362826;19;20018;-58
2022/05/15 01:37:50;;;;;;;0.00;0.00;;;;;;;16.99;54.37;101135.56;7353525;19;20034;-58
2022/05/15 01:40:15;;;;;;;0.03;0.03;;;;;;;17.00;54.52;101135.47;7357972;19;20015;-57
2022/05/15 01:42:41;;;;;;;0.00;0.00;;;;;;;17.01;54.15;101142.47;7369729;19;20411;-57
2022/05/15 01:45:07;;;;;;;0.00;0.00;;;;;;;17.00;54.72;101130.22;7362196;19;20014;-59
2022/05/15 01:47:32;;;;;;;0.00;0.00;;;;;;;16.98;54.52;101131.19;7357480;19;20018;-57
2022/05/15 01:49:58;;;;;;;0.00;0.00;;;;;;;16.86;53.94;101103.53;7361705;19;20006;-58
2022/05/15 01:52:24;;;;;;;0.03;0.03;;;;;;;16.97;53.89;101119.78;7358311;19;20753;-57
2022/05/15 01:54:49;;;;;;;0.05;0.05;;;;;;;16.85;54.04;101100.06;7361805;19;20026;-57
2022/05/15 01:57:14;;;;;;;0.00;0.00;;;;;;;16.93;54.30;101112.94;7360784;19;20026;-58
2022/05/15 01:59:40;;;;;;;0.00;0.00;;;;;;;16.93;54.97;101112.06;7348411;19;20010;-58
2022/05/15 02:02:07;;;;;;;0.00;0.00;;;;;;;16.90;54.58;101109.56;7366195;19;20019;-56
2022/05/15 02:04:33;;;;;;;0.00;0.00;;;;;;;16.85;54.85;101100.06;7354188;19;20030;-57
2022/05/15 02:06:58;;;;;;;0.00;0.00;;;;;;;16.86;54.25;101104.41;7357027;19;20006;-58
2022/05/15 02:09:23;;;;;;;0.00;0.00;;;;;;;16.86;54.86;101101.75;7358448;19;20026;-59
2022/05/15 02:11:49;;;;;;;0.05;0.05;;;;;;;16.85;54.92;101088.66;7354439;19;20023;-58
2022/05/15 02:14:14;;;;;;;0.00;0.00;;;;;;;16.82;55.07;101100.16;7353580;19;20458;-58
2022/05/15 02:16:40;;;;;;;0.00;0.00;;;;;;;16.81;55.22;101098.47;7362604;19;20024;-59
2022/05/15 02:19:06;;;;;;;0.00;0.00;;;;;;;16.77;55.12;101102.16;7361455;19;20011;-56
2022/05/15 02:21:32;;;;;;;0.00;0.00;;;;;;;16.75;55.61;101106.63;7355481;19;20047;-58
2022/05/15 02:23:57;;;;;;;0.00;0.00;;;;;;;16.68;55.21;101097.25;7354237;19;20044;-57
2022/05/15 02:26:24;;;;;;;0.10;0.10;;;;;;;16.63;55.79;101088.69;7354593;19;20056;-59
2022/05/15 02:28:49;;;;;;;0.00;0.00;;;;;;;16.71;55.61;101097.13;7353623;19;20023;-57
2022/05/15 02:31:15;;;;;;;0.00;0.00;;;;;;;16.71;55.61;101105.03;7362215;19;20018;-58
2022/05/15 02:33:41;;;;;;;0.00;0.00;;;;;;;16.69;55.78;101095.47;7362429;19;20411;-57
2022/05/15 02:36:07;;;;;;;0.03;0.03;;;;;;;16.67;56.16;101098.16;7361052;19;22762;-58
2022/05/15 02:38:33;;;;;;;0.00;0.00;;;;;;;16.66;55.47;101096.44;7364882;19;20018;-58
2022/05/15 02:40:58;;;;;;;0.00;0.00;;;;;;;16.51;55.93;101068.06;7361162;19;20010;-58
2022/05/15 02:43:24;;;;;;;0.10;0.10;;;;;;;16.65;56.03;101094.72;7366124;19;20006;-58
2022/05/15 02:45:49;;;;;;;0.00;0.00;;;;;;;16.65;56.04;101084.19;7366898;19;20035;-58
2022/05/15 02:51:05;;;;;;;0.00;0.00;;;;;;;16.66;56.50;101085.03;7360612;19;20118;-57
2022/05/15 02:53:36;;;;;;;0.00;0.00;;;;;;;16.67;55.70;101079.69;7360436;19;20006;-58
2022/05/15 02:56:06;;;;;;;0.05;0.05;;;;;;;16.66;55.85;101072.72;7361160;19;20824;-58
2022/05/15 02:58:32;;;;;;;0.00;0.00;;;;;;;16.65;56.71;101076.28;7359689;19;20093;-58
2022/05/15 03:00:57;;;;;;;0.00;0.00;;;;;;;16.66;56.47;101069.22;7360756;19;20058;-57
2022/05/15 03:03:24;;;;;;;0.00;0.00;;;;;;;16.65;56.80;101065.72;7359162;19;20014;-59
2022/05/15 03:05:50;;;;;;;0.00;0.00;;;;;;;16.63;55.95;101070.22;7350297;19;20731;-58
2022/05/15 03:08:15;;;;;;;0.05;0.05;;;;;;;16.65;56.43;101065.72;7368951;19;20034;-56
2022/05/15 03:10:40;;;;;;;0.05;0.05;;;;;;;16.66;56.94;101067.44;7363023;19;20029;-58
2022/05/15 03:13:06;;;;;;;0.00;0.00;;;;;;;16.65;56.40;101059.59;7362979;19;20022;-58
2022/05/15 03:15:31;;;;;;;0.00;0.00;;;;;;;16.63;56.87;101062.31;7363964;19;20015;-57
2022/05/15 03:17:56;;;;;;;0.10;0.10;;;;;;;16.66;56.82;101061.31;7366857;19;20629;-58
2022/05/15 03:20:27;;;;;;;0.00;0.00;;;;;;;16.66;56.41;101054.25;7366478;19;20007;-58
2022/05/15 03:22:53;;;;;;;0.00;0.00;;;;;;;16.66;56.68;101056.88;7368414;19;20014;-56
2022/05/15 03:25:18;;;;;;;0.00;0.00;;;;;;;16.65;56.84;101055.19;7364113;19;20013;-58
2022/05/15 03:27:44;;;;;;;0.00;0.00;;;;;;;16.65;56.51;101044.63;7363832;19;20010;-58
2022/05/15 03:30:10;;;;;;;0.00;0.00;;;;;;;16.64;56.51;101050.84;7364555;19;20017;-59
2022/05/15 03:32:37;;;;;;;0.00;0.00;;;;;;;16.62;56.62;101047.38;7364162;19;20007;-58
2022/05/15 03:35:04;;;;;;;0.00;0.00;;;;;;;16.61;56.38;101048.31;7365652;19;20011;-57
2022/05/15 03:37:29;;;;;;;0.00;0.00;;;;;;;16.52;56.63;101038.16;7370832;19;22335;-57
2022/05/15 03:39:55;;;;;;;0.00;0.00;;;;;;;16.60;56.13;101041.31;7366085;19;20092;-57
2022/05/15 03:42:20;;;;;;;0.00;0.00;;;;;;;16.57;56.87;101046.72;7363192;19;20026;-57
2022/05/15 03:44:46;;;;;;;0.00;0.00;;;;;;;16.61;57.04;101043.03;7364170;19;20054;-59
2022/05/15 03:47:11;;;;;;;0.00;0.00;;;;;;;16.59;57.21;101045.75;7363503;19;20007;-57
2022/05/15 03:49:36;;;;;;;0.00;0.00;;;;;;;16.59;56.91;101044.91;7365171;19;20033;-57
2022/05/15 03:52:03;;;;;;;0.00;0.00;;;;;;;16.57;56.89;101036.16;7372399;19;20123;-59
2022/05/15 03:54:29;;;;;;;0.00;0.00;;;;;;;16.59;57.02;101047.53;7364518;19;20079;-58
2022/05/15 03:56:54;;;;;;;0.00;0.00;;;;;;;16.58;56.30;101048.47;7361875;19;20089;-57
2022/05/15 03:59:25;;;;;;;0.00;0.00;;;;;;;16.58;56.59;101048.47;7364534;19;20014;-58
2022/05/15 04:01:50;;;;;;;0.10;0.10;;;;;;;16.54;56.54;101036.31;7362858;19;20023;-58
2022/05/15 04:04:17;;;;;;;0.00;0.00;;;;;;;16.40;56.29;101014.94;7370871;19;20003;-59
2022/05/15 04:06:42;;;;;;;0.00;0.00;;;;;;;16.48;56.97;101044.50;7363033;19;20013;-58
2022/05/15 04:09:08;;;;;;;0.10;0.10;;;;;;;16.40;56.83;101030.75;7363852;19;20019;-58
2022/05/15 04:11:33;;;;;;;0.00;0.00;;;;;;;16.46;56.83;101046.31;7363180;19;20031;-58
2022/05/15 04:13:59;;;;;;;0.03;0.03;;;;;;;16.33;57.00;101025.75;7373272;19;20027;-57
2022/05/15 04:16:24;;;;;;;0.05;0.05;;;;;;;16.42;56.76;101036.81;7370491;19;20025;-57
2022/05/15 04:18:50;;;;;;;0.00;0.00;;;;;;;16.39;57.02;101034.31;7373147;19;20007;-57
2022/05/15 04:21:15;;;;;;;0.00;0.00;;;;;;;16.31;56.14;101021.44;7362979;19;20871;-57
2022/05/15 04:23:41;;;;;;;0.00;0.00;;;;;;;16.24;56.46;101007.69;7362935;19;20971;-57
2022/05/15 04:26:06;;;;;;;0.00;0.00;;;;;;;16.28;56.64;101019.81;7361541;19;20018;-59
2022/05/15 04:28:32;;;;;;;0.00;0.00;;;;;;;16.25;56.88;101025.19;7361712;19;20042;-58
2022/05/15 04:30:57;;;;;;;0.10;0.10;;;;;;;16.22;57.11;101009.53;7364519;19;20018;-59
2022/05/15 04:33:23;;;;;;;0.10;0.10;;;;;;;16.19;56.39;101014.91;7366366;19;20014;-59
2022/05/15 04:35:48;;;;;;;0.00;0.00;;;;;;;16.17;57.30;101016.78;7363261;19;20017;-57
2022/05/15 04:38:13;;;;;;;0.00;0.00;;;;;;;16.14;56.87;101016.88;7367771;19;20046;-58
2022/05/15 04:40:39;;;;;;;0.00;0.00;;;;;;;16.11;57.09;101016.13;7365101;19;20014;-58
2022/05/15 04:43:04;;;;;;;0.00;0.00;;;;;;;16.09;57.24;101014.44;7362406;19;19998;-58
2022/05/15 04:45:30;;;;;;;0.00;0.00;;;;;;;16.07;57.47;101010.16;7370326;19;20030;-59
2022/05/15 04:47:56;;;;;;;0.00;0.00;;;;;;;16.04;57.40;101011.13;7367731;19;20021;-57
2022/05/15 04:50:22;;;;;;;0.00;0.00;;;;;;;15.97;57.38;100998.28;7359342;19;20106;-58
2022/05/15 04:52:47;;;;;;;0.00;0.00;;;;;;;16.04;57.38;101005.00;7361982;19;20316;-59
2022/05/15 04:55:14;;;;;;;0.00;0.00;;;;;;;16.05;57.18;101004.06;7360169;19;20018;-58
2022/05/15 04:57:39;;;;;;;0.00;0.00;;;;;;;16.06;57.38;101008.41;7363704;19;20812;-58
2022/05/15 05:00:09;;;;;;;0.00;0.00;;;;;;;15.99;57.50;100985.88;7356963;19;20074;-59
2022/05/15 05:02:34;;;;;;;0.00;0.00;;;;;;;15.99;57.38;100985.88;7362130;19;20457;-57
2022/05/15 05:05:00;;;;;;;0.00;0.00;;;;;;;16.05;57.54;101001.44;7361776;19;20041;-57
2022/05/15 05:07:29;;;;;;;0.00;0.00;;;;;;;15.96;57.37;100981.59;7362653;19;20020;-56
2022/05/15 05:09:55;;;;;;;0.00;0.00;;;;;;;16.08;57.97;101003.97;7361408;19;20019;-59
2022/05/15 05:12:20;;;;;;;0.00;0.00;;;;;;;16.08;57.61;101003.97;7368606;19;25434;-58
2022/05/15 05:14:46;;;;;;;0.05;0.05;;;;;;;16.09;57.76;101006.53;7370378;19;20014;-59
2022/05/15 05:17:12;;;;;;;0.00;0.00;;;;;;;16.09;57.62;101003.88;7368226;19;21341;-56
2022/05/15 05:19:37;;;;;;;0.00;0.00;;;;;;;16.12;57.30;101012.56;7359571;19;20022;-59
2022/05/15 05:22:03;;;;;;;0.10;0.10;;;;;;;16.11;57.65;101006.44;7365821;19;20014;-58
2022/05/15 05:24:29;;;;;;;0.00;0.00;;;;;;;16.12;57.97;101013.47;7368312;19;20002;-58
2022/05/15 05:26:54;;;;;;;0.00;0.00;;;;;;;16.13;57.73;101017.81;7362951;19;20622;-57
2022/05/15 05:29:19;;;;;;;0.00;0.00;;;;;;;16.12;57.40;101016.09;7360119;19;20483;-58
2022/05/15 05:31:45;;;;;;;0.00;0.00;;;;;;;16.13;57.77;101015.16;7359695;19;20030;-57
2022/05/15 05:34:10;;;;;;;0.00;0.00;;;;;;;16.14;57.58;101019.50;7360249;19;20015;-56
2022/05/15 05:36:36;;;;;;;0.00;0.00;;;;;;;16.15;58.12;101013.31;7360204;19;20010;-57
2022/05/15 05:39:01;;;;;;;0.00;0.00;;;;;;;16.08;57.91;100996.06;7360540;19;20443;-58
2022/05/15 05:41:27;;;;;;;0.00;0.00;;;;;;;16.17;57.94;101005.34;7361129;19;20018;-57
2022/05/15 05:43:52;;;;;;;0.10;0.10;;;;;;;16.18;57.83;101007.94;7358055;19;20060;-57
2022/05/15 05:46:18;;;;;;;0.10;0.10;;;;;;;16.17;57.10;101011.50;7363195;19;20023;-59
2022/05/15 05:48:46;;;;;;;0.00;0.00;;;;;;;16.20;58.24;101006.09;7366854;19;20026;-59
2022/05/15 05:51:14;;;;;;;0.00;0.00;;;;;;;16.23;57.61;101005.97;7368217;19;20576;-57
2022/05/15 05:53:40;;;;;;;0.00;0.00;;;;;;;16.22;58.49;101004.25;7362704;19;20010;-57
2022/05/15 05:56:06;;;;;;;0.00;0.00;;;;;;;16.25;58.14;101009.38;7359768;19;20639;-57
2022/05/15 05:58:32;;;;;;;0.00;0.00;;;;;;;16.27;58.03;101017.22;7356996;19;20488;-56
2022/05/15 06:00:57;;;;;;;0.00;0.00;;;;;;;16.29;58.03;101005.72;7359789;19;20018;-58
2022/05/15 06:06:06;;;;;;;0.00;0.00;;;;;;;16.36;58.26;101008.94;7358848;19;20099;-58
2022/05/15 06:08:32;;;;;;;0.00;0.00;;;;;;;16.38;58.33;101008.91;7356825;19;20078;-58
2022/05/15 06:10:59;;;;;;;0.00;0.00;;;;;;;16.39;58.80;101000.06;7363880;19;20018;-59
2022/05/15 06:13:25;;;;;;;0.00;0.00;;;;;;;16.43;58.54;100996.38;7361341;19;20015;-59
2022/05/15 06:15:52;;;;;;;0.00;0.00;;;;;;;16.48;58.47;100997.03;7364097;19;20006;-58
2022/05/15 06:18:17;;;;;;;0.00;0.00;;;;;;;16.46;58.13;100989.19;7364039;19;20026;-57
2022/05/15 06:20:43;;;;;;;0.10;0.10;;;;;;;16.57;58.41;101000.16;7362627;19;20015;-59
2022/05/15 06:23:08;;;;;;;0.00;0.00;;;;;;;16.61;58.04;100995.56;7364135;19;20094;-59
2022/05/15 06:25:34;;;;;;;0.00;0.00;;;;;;;16.64;58.16;100995.47;7360250;19;20019;-58
2022/05/15 06:28:00;;;;;;;0.03;0.03;;;;;;;16.70;58.27;101003.09;7364790;19;20094;-57
2022/05/15 06:30:25;;;;;;;0.08;0.08;;;;;;;16.70;58.23;100989.91;7362547;19;20795;-57
2022/05/15 06:32:51;;;;;;;0.10;0.10;;;;;;;16.77;58.19;100994.00;7364424;19;20080;-56
2022/05/15 06:35:16;;;;;;;0.00;0.00;;;;;;;16.82;58.35;101005.22;7362699;19;20015;-58
2022/05/15 06:37:42;;;;;;;0.00;0.00;;;;;;;16.87;58.17;100999.75;7363820;19;20009;-57
2022/05/15 06:40:10;;;;;;;0.00;0.00;;;;;;;16.92;58.34;100999.53;7363046;19;20786;-59
2022/05/15 06:42:35;;;;;;;;;;;;;;;16.99;55.63;100990.44;7359854;19;20017;-58
2022/05/15 06:45:01;;;;;;;0.00;0.00;;;;;;;16.98;57.85;100986.06;7363698;19;19922;-57
2022/05/15 06:47:26;;;;;;;0.00;0.00;;;;;;;17.01;58.15;100984.16;7362508;19;20010;-58
2022/05/15 06:49:52;;;;;;;0.10;0.10;;;;;;;16.96;57.68;100969.47;7363199;19;20029;-57
2022/05/15 06:52:17;;;;;;;0.00;0.00;;;;;;;17.06;57.94;100986.59;7362646;19;20449;-59
2022/05/15 06:54:43;;;;;;;0.00;0.00;;;;;;;17.06;58.26;100973.41;7369435;19;20014;-59
2022/05/15 06:59:52;;;;;;;0.03;0.03;;;;;;;17.08;58.38;100974.19;7364471;19;20035;-57
2022/05/15 07:02:18;;;;;;;0.00;0.00;;;;;;;17.15;58.02;100980.91;7368195;19;20029;-57
2022/05/15 07:04:43;;;;;;;0.05;0.05;;;;;;;17.16;58.12;100982.63;7363868;19;20415;-59
2022/05/15 07:07:09;;;;;;;0.00;0.00;;;;;;;17.13;58.50;100966.91;7362102;19;20035;-57
2022/05/15 07:09:35;;;;;;;0.10;0.10;;;;;;;17.18;58.78;100964.91;7363284;19;20002;-58
2022/05/15 07:12:02;;;;;;;0.10;0.10;;;;;;;17.35;58.31;100972.94;7362133;19;20019;-59
2022/05/15 07:14:28;;;;;;;0.00;0.00;;;;;;;17.46;57.81;100966.28;7362234;19;20014;-58
2022/05/15 07:16:54;;;;;;;0.00;0.00;;;;;;;17.54;58.28;100962.38;7360908;19;20653;-59
2022/05/15 07:19:19;;;;;;;0.00;0.00;;;;;;;17.61;57.98;100968.22;7362985;19;20582;-58
2022/05/15 07:21:45;;;;;;;0.00;0.00;;;;;;;17.68;58.28;100959.06;7368750;19;20573;-58
2022/05/15 07:24:10;;;;;;;0.00;0.00;;;;;;;17.76;57.54;100966.66;7361363;19;20021;-58
2022/05/15 07:26:39;;;;;;;0.00;0.00;;;;;;;17.83;57.44;100966.25;7361642;19;20042;-58
2022/05/15 07:29:05;;;;;;;0.10;0.10;;;;;;;17.85;57.66;100961.78;7360733;19;20078;-58
2022/05/15 07:31:30;;;;;;;0.00;0.00;;;;;;;17.87;57.50;100954.63;7367126;19;20110;-59
2022/05/15 07:33:56;;;;;;;0.00;0.00;;;;;;;18.03;57.61;100964.44;7365743;19;20066;-57
2022/05/15 07:36:21;;;;;;;0.00;0.00;;;;;;;18.10;57.28;100955.28;7365551;19;20497;-58
2022/05/15 07:38:47;;;;;;;0.00;0.00;;;;;;;18.17;56.94;100956.69;7360666;19;20010;-58
2022/05/15 07:41:14;;;;;;;0.00;0.00;;;;;;;18.23;57.00;100961.66;7361466;19;20011;-57
2022/05/15 07:43:40;;;;;;;0.03;0.03;;;;;;;18.20;56.40;100945.97;7361909;19;20751;-59
2022/05/15 07:46:06;;;;;;;0.00;0.00;;;;;;;18.38;56.62;100963.53;7363388;19;20031;-57
2022/05/15 07:48:32;;;;;;;0.03;0.03;;;;;;;18.44;56.53;100958.84;7360609;19;20014;-58
2022/05/15 07:50:58;;;;;;;0.10;0.10;;;;;;;18.50;55.93;100961.19;7361312;19;20014;-56
2022/05/15 07:53:23;;;;;;;0.00;0.00;;;;;;;18.55;55.96;100954.75;7368878;19;20011;-57
2022/05/15 07:55:48;;;;;;;0.00;0.00;;;;;;;18.63;55.82;100955.19;7372152;19;20121;-59
2022/05/15 07:58:14;;;;;;;0.00;0.00;;;;;;;18.70;55.22;100950.44;7370294;19;20022;-59
2022/05/15 08:00:39;;;;;;;0.05;0.05;;;;;;;18.76;55.51;100950.16;7363824;19;20363;-59
2022/05/15 08:03:08;;;;;;;0.08;0.08;;;;;;;18.82;54.99;100952.47;7359608;19;20354;-58
2022/05/15 08:08:19;;;;;;;0.10;0.10;;;;;;;18.89;54.94;100945.91;7255459;19;2004399;-58
2022/05/15 08:10:46;;;;;;;0.10;0.10;;;;;;;18.97;54.82;100957.88;7362409;19;20736;-57
2022/05/15 08:13:17;;;;;;;0.00;0.00;;;;;;;19.07;54.31;100956.44;7358378;19;20099;-58
2022/05/15 08:15:44;;;;;;;0.10;0.10;;;;;;;19.08;54.51;100951.06;7360226;19;20022;-58
2022/05/15 08:23:48;;;;;;;0.00;0.00;;;;;;;19.28;54.33;100949.97;7369353;19;20018;-58
2022/05/15 08:26:14;;;;;;;0.00;0.00;;;;;;;19.32;54.21;100940.94;7370532;19;20806;-58
2022/05/15 08:28:39;;;;;;;0.03;0.03;;;;;;;19.38;54.41;100937.09;7359982;19;20033;-59
2022/05/15 08:31:06;;;;;;;0.10;0.10;;;;;;;19.45;54.38;100936.66;7359083;19;20022;-57
2022/05/15 08:33:33;;;;;;;0.10;0.10;;;;;;;19.41;54.17;100913.94;7357836;19;20450;-58
2022/05/15 08:35:58;;;;;;;0.10;0.10;;;;;;;19.64;53.85;100930.34;7356409;19;20006;-58
2022/05/15 08:38:24;;;;;;;0.00;0.00;;;;;;;19.74;53.51;100931.53;7359771;19;20026;-59
2022/05/15 08:40:59;;;;;;;0.00;0.00;;;;;;;19.87;52.95;100929.91;7356674;19;20002;-59
2022/05/15 08:43:41;;;;;;;0.10;0.10;;;;;;;20.00;53.54;100939.78;7364379;19;21830;-58
2022/05/15 08:46:24;;;;;;;0.00;0.00;;;;;;;20.14;52.97;100931.88;7366595;19;20043;-59
2022/05/15 08:48:52;;;;;;;0.08;0.08;;;;;;;20.24;52.56;100933.03;7366603;19;20006;-59
2022/05/15 08:51:17;;;;;;;0.10;0.10;;;;;;;20.38;52.63;100925.13;7367755;19;20666;-57
2022/05/15 08:53:49;;;;;;;0.00;0.00;;;;;;;20.62;52.29;100922.78;7364069;19;20046;-58
2022/05/15 08:56:16;;;;;;;0.10;0.10;;;;;;;20.80;52.02;100923.47;7363281;19;20790;-58
2022/05/15 08:58:54;;;;;;;0.00;0.00;;;;;;;21.04;51.65;100917.59;7360264;19;20491;-59
2022/05/15 09:01:24;;;;;;;0.10;0.10;;;;;;;21.10;51.42;100911.91;7359196;19;20075;-59
2022/05/15 09:03:49;;;;;;;0.00;0.00;;;;;;;21.17;51.36;100906.09;7364263;19;20010;-59
2022/05/15 09:06:37;;;;;;;0.00;0.00;;;;;;;21.40;50.81;100917.94;7366558;19;20067;-59
2022/05/15 09:09:30;;;;;;;0.10;0.10;;;;;;;21.49;50.12;100914.69;7359748;19;20019;-57
2022/05/15 09:12:01;;;;;;;0.00;0.00;;;;;;;21.55;50.17;100907.28;7258456;19;2004411;-59
2022/05/15 09:15:07;;;;;;;0.10;0.10;;;;;;;21.77;50.29;100902.25;7363848;19;20761;-58
2022/05/15 09:17:58;;;;;;;0.03;0.03;;;;;;;21.95;49.90;100906.34;7266377;19;2004216;-58
2022/05/15 09:20:36;;;;;;;0.00;0.00;;;;;;;22.15;49.57;100896.19;7359721;19;20010;-59
2022/05/15 09:23:08;;;;;;;0.10;0.10;;;;;;;22.26;48.37;100888.34;7358012;19;20393;-59
2022/05/15 09:25:36;;;;;;;0.10;0.10;;;;;;;22.32;48.05;100887.91;7358780;19;20285;-57
2022/05/15 09:28:07;;;;;;;0.10;0.10;;;;;;;22.32;47.68;100879.94;7356974;19;20034;-58
2022/05/15 09:30:45;;;;;;;0.10;0.10;;;;;;;22.40;47.20;100884.72;7358343;19;20010;-58
2022/05/15 09:33:26;;;;;;;0.03;0.03;;;;;;;22.38;47.45;100882.16;7358916;19;20054;-58
2022/05/15 09:36:23;;;;;;;0.10;0.10;;;;;;;22.33;47.38;100873.66;7360586;19;20767;-58
2022/05/15 09:39:08;;;;;;;0.03;0.03;;;;;;;22.18;46.93;100866.72;7258273;19;2004850;-58
2022/05/15 09:44:43;;;;;;;0.10;0.10;;;;;;;22.03;47.14;100877.41;7357411;19;20017;-57
2022/05/15 09:47:31;;;;;;;0.00;0.00;;;;;;;21.93;47.06;100876.34;7255076;19;2004559;-59
2022/05/15 09:49:57;;;;;;;0.00;0.00;;;;;;;21.80;47.11;100869.31;7369181;19;20014;-57
2022/05/15 09:52:39;;;;;;;0.10;0.10;;;;;;;21.77;47.05;100870.34;7367055;19;20131;-57
2022/05/15 09:55:20;;;;;;;0.10;0.10;;;;;;;21.68;46.50;100870.94;7367599;19;20757;-57
2022/05/15 09:58:01;;;;;;;0.10;0.10;;;;;;;21.63;47.00;100873.06;7370801;19;20015;-59
2022/05/15 10:00:30;;;;;;;0.10;0.10;;;;;;;21.55;47.24;100870.06;7366281;19;20143;-58
2022/05/15 10:03:03;;;;;;;0.10;0.10;;;;;;;21.55;47.69;100860.28;7372670;19;20090;-58
2022/05/15 10:05:35;;;;;;;0.10;0.10;;;;;;;21.50;47.25;100839.34;7374943;19;20884;-59
2022/05/15 10:08:24;;;;;;;0.10;0.10;;;;;;;21.68;47.88;100865.63;7370946;19;20014;-58
2022/05/15 10:11:03;;;;;;;0.00;0.00;;;;;;;21.74;47.37;100862.56;7367013;19;20010;-58
2022/05/15 10:13:43;;;;;;;0.00;0.00;;;;;;;21.87;47.56;100860.78;7364972;19;20786;-59
2022/05/15 10:16:20;;;;;;;0.10;0.10;;;;;;;22.22;48.16;100854.91;7367716;19;20023;-57
2022/05/15 10:19:04;;;;;;;0.10;0.10;;;;;;;22.68;46.58;100849.03;7371153;19;20090;-58
2022/05/15 10:21:51;;;;;;;0.10;0.10;;;;;;;23.45;47.42;100857.66;7366574;19;20034;-59
2022/05/15 10:24:34;;;;;;;0.10;0.10;;;;;;;23.99;46.64;100852.72;7366525;19;20011;-58
2022/05/15 10:27:13;;;;;;;0.10;0.10;;;;;;;24.49;45.76;100845.28;7367630;19;20123;-58
2022/05/15 10:29:47;;;;;;;0.10;0.10;;;;;;;25.00;44.26;100834.09;7367434;19;20454;-57
2022/05/15 10:32:31;;;;;;;0.10;0.10;;;;;;;25.57;44.62;100824.94;7363764;19;20711;-59
2022/05/15 10:34:57;;;;;;;0.10;0.10;;;;;;;25.92;42.42;100826.50;7363003;19;20011;-57
2022/05/15 10:38:09;;;;;;;0.10;0.10;;;;;;;26.57;43.36;100825.31;7369047;19;20022;-59
2022/05/15 10:40:43;;;;;;;0.10;0.10;;;;;;;27.17;41.40;100822.69;7260934;19;2004425;-58
2022/05/15 10:43:26;;;;;;;0.05;0.05;;;;;;;27.60;39.63;100826.78;7366167;19;20015;-59
2022/05/15 10:46:19;;;;;;;0.10;0.10;;;;;;;28.24;40.63;100820.78;7365073;19;20018;-59
2022/05/15 10:49:15;;;;;;;0.10;0.10;;;;;;;28.79;39.65;100818.19;7260795;19;2004504;-59
2022/05/15 10:51:59;;;;;;;0.10;0.10;;;;;;;29.27;39.56;100818.88;7260036;19;2004273;-57
2022/05/15 10:57:50;;;;;;;0.10;0.10;;;;;;;30.10;36.43;100801.41;7260056;19;2004341;-58
2022/05/15 11:00:26;;;;;;;0.00;0.00;;;;;;;30.65;34.11;100808.28;7263703;19;2004253;-59
2022/05/15 11:03:04;;;;;;;0.00;0.00;;;;;;;31.08;34.18;100818.06;7362588;19;20002;-59
2022/05/15 11:05:36;;;;;;;0.00;0.00;;;;;;;31.29;32.33;100812.22;7360553;19;21512;-58
2022/05/15 11:08:02;;;;;;;0.00;0.00;;;;;;;31.56;30.72;100811.03;7361347;19;20371;-59
2022/05/15 11:10:39;;;;;;;0.00;0.00;;;;;;;32.05;33.06;100804.81;7361044;19;20030;-59
2022/05/15 11:13:21;;;;;;;0.10;0.10;;;;;;;32.47;33.39;100804.53;7363782;19;20015;-58
2022/05/15 11:15:56;;;;;;;0.10;0.10;;;;;;;32.66;30.73;100796.00;7364050;19;20479;-58
2022/05/15 11:18:40;;;;;;;0.00;0.00;;;;;;;33.10;29.42;100800.84;7370554;19;20030;-59
2022/05/15 11:21:10;;;;;;;0.00;0.00;;;;;;;33.67;28.67;100792.31;7360663;19;20073;-58
2022/05/15 11:23:45;;;;;;;0.00;0.00;;;;;;;34.06;29.59;100777.72;7362242;19;20448;-59
2022/05/15 11:26:25;;;;;;;0.10;0.10;;;;;;;34.49;29.95;100784.19;7361061;19;20019;-58
2022/05/15 11:28:56;;;;;;;0.10;0.10;;;;;;;34.78;28.62;100791.44;7363330;19;20378;-59
2022/05/15 11:31:28;;;;;;;0.10;0.10;;;;;;;34.99;26.11;100781.69;7362159;19;20827;-58
2022/05/15 11:34:02;;;;;;;0.00;0.00;;;;;;;35.06;26.46;100782.56;7361996;19;20944;-59
2022/05/15 11:36:33;;;;;;;0.00;0.00;;;;;;;34.88;26.49;100780.28;7359778;19;20474;-59
2022/05/15 11:39:18;;;;;;;0.08;0.08;;;;;;;34.63;26.55;100778.94;7361088;19;20030;-58
2022/05/15 11:41:44;;;;;;;0.00;0.00;;;;;;;34.29;26.09;100769.50;7361623;19;20010;-59
2022/05/15 11:44:18;;;;;;;0.00;0.00;;;;;;;34.21;27.34;100773.13;7362011;19;21725;-59
2022/05/15 11:46:50;;;;;;;0.00;0.00;;;;;;;33.96;27.32;100764.47;7358608;19;20031;-58
2022/05/15 11:49:25;;;;;;;0.10;0.10;;;;;;;33.73;26.59;100769.91;7359627;19;20006;-58
2022/05/15 11:52:19;;;;;;;0.10;0.10;;;;;;;33.55;28.98;100766.69;7361584;19;20007;-58
2022/05/15 11:54:50;;;;;;;0.00;0.00;;;;;;;33.26;27.28;100770.13;7263772;19;2004522;-59
2022/05/15 11:57:34;;;;;;;0.00;0.00;;;;;;;33.19;29.02;100777.28;7362223;19;20625;-56